.
WxDataArchive / Data Records for 2007-12-19
2007-12-18 December 2007 2007-12-20

Data Records for Wednesday, 19 December 2007

Time	Temp	Chill	HIndex	Humid	Dewpt	 Wind 	HiWind	WindDir	Rain 	Barom 
-----	----	-----	------	-----	-----	------	------	-------	-----	----- 
00:00	37.5	37.5	37.5	69	28.3	2	5	248	0.01	29.913 
00:05	37.6	37.6	37.6	69	28.4	2	6	248	0.00	29.910 
00:10	37.8	37.8	37.8	69	28.6	1	4	248	0.00	29.910 
00:15	37.8	37.8	37.8	69	28.6	1	4	248	0.00	29.910 
00:20	37.9	37.9	37.9	69	28.7	2	6	248	0.00	29.909 
00:25	38.2	38.2	38.2	69	28.9	3	7	248	0.00	29.909 
00:30	38.5	38.5	38.5	68	28.9	2	6	248	0.00	29.908 
00:35	38.6	38.6	38.6	68	29.0	3	10	248	0.00	29.906 
00:40	38.8	38.8	38.8	68	29.2	2	5	248	0.00	29.904 
00:45	38.8	38.8	38.8	68	29.2	3	8	248	0.00	29.900 
00:50	38.9	38.9	38.9	68	29.3	3	6	248	0.00	29.901 
00:55	38.9	38.9	38.9	68	29.3	3	7	248	0.00	29.898 
01:00	38.9	38.9	38.9	69	29.6	2	7	248	0.01	29.897 
01:05	38.9	38.9	38.9	69	29.6	2	6	248	0.00	29.894 
01:10	38.9	38.9	38.9	69	29.6	2	5	248	0.00	29.893 
01:15	38.8	38.8	38.8	69	29.5	2	7	248	0.00	29.892 
01:20	38.6	38.6	38.6	69	29.3	2	5	248	0.00	29.892 
01:25	38.6	38.6	38.6	70	29.7	2	7	248	0.00	29.889 
01:30	38.6	35.7	38.6	70	29.7	4	10	248	0.01	29.889 
01:35	38.6	38.6	38.6	70	29.7	3	6	248	0.00	29.885 
01:40	38.6	38.6	38.6	70	29.7	3	12	248	0.00	29.887 
01:45	38.6	35.7	38.6	70	29.7	4	12	248	0.01	29.885 
01:50	38.5	38.5	38.5	70	29.6	3	8	270	0.00	29.884 
01:55	38.5	38.5	38.5	71	29.9	3	7	248	0.00	29.884 
02:00	38.3	38.3	38.3	71	29.7	3	7	248	0.00	29.886 
02:05	38.2	38.2	38.2	71	29.6	2	6	248	0.00	29.883 
02:10	38.2	38.2	38.2	72	30.0	3	7	248	0.01	29.884 
02:15	38.2	38.2	38.2	72	30.0	3	6	248	0.00	29.884 
02:20	38.0	38.0	38.0	72	29.8	3	6	248	0.00	29.889 
02:25	38.0	38.0	38.0	73	30.1	3	7	248	0.01	29.889 
02:30	37.9	37.9	37.9	73	30.0	3	6	248	0.00	29.888 
02:35	37.8	37.8	37.8	73	29.9	3	6	248	0.00	29.890 
02:40	37.6	37.6	37.6	74	30.1	2	7	248	0.00	29.891 
02:45	37.6	37.6	37.6	74	30.1	3	7	248	0.00	29.892 
02:50	37.3	37.3	37.3	74	29.8	2	6	248	0.00	29.894 
02:55	37.3	37.3	37.3	75	30.1	2	5	248	0.00	29.897 
03:00	37.2	37.2	37.2	76	30.3	2	6	248	0.01	29.897 
03:05	37.0	37.0	37.0	76	30.2	2	7	248	0.00	29.899 
03:10	36.9	36.9	36.9	77	30.4	2	5	248	0.00	29.896 
03:15	36.8	36.8	36.8	77	30.3	2	5	248	0.00	29.895 
03:20	36.6	36.6	36.6	77	30.1	1	5	248	0.00	29.898 
03:25	36.5	36.5	36.5	78	30.3	2	6	248	0.00	29.896 
03:30	36.5	36.5	36.5	78	30.3	3	5	248	0.00	29.896 
03:35	36.3	36.3	36.3	78	30.1	3	6	248	0.01	29.900 
03:40	36.3	36.3	36.3	78	30.1	3	6	248	0.00	29.900 
03:45	36.2	36.2	36.2	79	30.3	2	6	248	0.00	29.900 
03:50	36.0	36.0	36.0	79	30.1	2	6	248	0.00	29.901 
03:55	35.9	35.9	35.9	79	30.0	2	7	248	0.00	29.901 
04:00	35.9	35.9	35.9	80	30.3	3	6	248	0.00	29.901 
04:05	35.9	35.9	35.9	80	30.3	3	7	248	0.00	29.903 
04:10	35.8	35.8	35.8	80	30.2	3	10	248	0.00	29.902 
04:15	35.8	35.8	35.8	80	30.2	3	7	248	0.00	29.904 
04:20	35.6	35.6	35.6	80	30.1	3	10	270	0.00	29.904 
04:25	35.6	35.6	35.6	80	30.1	3	9	270	0.00	29.903 
04:30	35.5	32.1	35.5	81	30.3	4	14	248	0.00	29.905 
04:35	35.5	35.5	35.5	80	30.0	3	8	270	0.00	29.907 
04:40	35.3	31.9	35.3	81	30.1	4	9	270	0.00	29.913 
04:45	35.2	35.2	35.2	81	30.0	3	10	270	0.01	29.911 
04:50	35.0	30.6	35.0	81	29.8	5	13	270	0.00	29.910 
04:55	34.9	34.9	34.9	81	29.7	3	11	248	0.00	29.909 
05:00	34.7	34.7	34.7	81	29.5	3	9	248	0.00	29.911 
05:05	34.6	34.6	34.6	81	29.4	3	8	270	0.00	29.912 
05:10	34.4	30.8	34.4	81	29.2	4	11	270	0.00	29.914 
05:15	34.3	34.3	34.3	81	29.1	3	9	248	0.00	29.915 
05:20	34.1	34.1	34.1	81	28.9	3	10	270	0.00	29.922 
05:25	34.0	34.0	34.0	80	28.5	3	7	270	0.00	29.922 
05:30	33.8	33.8	33.8	81	28.6	3	8	248	0.00	29.924 
05:35	33.7	33.7	33.7	81	28.5	3	5	248	0.00	29.927 
05:40	33.7	30.0	33.7	81	28.5	4	10	270	0.00	29.926 
05:45	33.5	33.5	33.5	81	28.3	3	7	248	0.00	29.926 
05:50	33.4	33.4	33.4	81	28.2	2	5	270	0.00	29.928 
05:55	33.2	33.2	33.2	81	28.0	3	7	270	0.00	29.927 
06:00	33.1	33.1	33.1	81	27.9	2	6	270	0.00	29.927 
06:05	32.9	32.9	32.9	81	27.7	2	5	270	0.00	29.931 
06:10	32.9	32.9	32.9	81	27.7	2	4	248	0.00	29.933 
06:15	32.8	32.8	32.8	81	27.6	2	5	248	0.00	29.934 
06:20	32.7	32.7	32.7	81	27.5	3	9	248	0.00	29.934 
06:25	32.5	32.5	32.5	81	27.3	2	6	248	0.00	29.934 
06:30	32.4	32.4	32.4	81	27.2	2	5	270	0.00	29.940 
06:35	32.4	32.4	32.4	81	27.2	3	6	270	0.00	29.947 
06:40	32.2	32.2	32.2	81	27.0	3	9	270	0.00	29.950 
06:45	32.2	32.2	32.2	82	27.3	1	7	248	0.00	29.950 
06:50	32.1	32.1	32.1	82	27.2	3	6	270	0.00	29.956 
06:55	31.9	31.9	31.9	82	27.0	3	10	270	0.00	29.961 
07:00	31.9	31.9	31.9	82	27.0	2	7	248	0.00	29.964 
07:05	31.8	31.8	31.8	82	26.9	3	6	270	0.01	29.964 
07:10	31.8	31.8	31.8	81	26.6	2	6	270	0.00	29.965 
07:15	31.5	31.5	31.5	81	26.4	3	6	270	0.00	29.969 
07:20	31.3	31.3	31.3	81	26.2	3	9	270	0.00	29.972 
07:25	31.2	31.2	31.2	81	26.1	3	6	270	0.00	29.974 
07:30	30.9	30.9	30.9	81	25.8	2	4	292	0.00	29.976 
07:35	30.7	30.7	30.7	81	25.6	3	7	270	0.00	29.981 
07:40	30.7	30.7	30.7	81	25.6	2	7	270	0.00	29.982 
07:45	30.6	30.6	30.6	81	25.5	2	4	270	0.00	29.982 
07:50	30.6	30.6	30.6	82	25.8	1	5	270	0.00	29.984 
07:55	30.6	30.6	30.6	82	25.8	2	4	270	0.00	29.986 
08:00	30.6	30.6	30.6	82	25.8	2	5	292	0.00	29.992 
08:05	30.6	30.6	30.6	82	25.8	2	4	270	0.00	30.000 
08:10	30.6	30.6	30.6	82	25.8	2	5	270	0.00	30.000 
08:15	30.6	30.6	30.6	82	25.8	2	5	248	0.00	30.002 
08:20	30.4	30.4	30.4	82	25.6	3	12	248	0.00	30.005 
08:25	30.4	30.4	30.4	82	25.6	3	7	248	0.00	30.005 
08:30	30.4	30.4	30.4	82	25.6	2	4	270	0.00	30.012 
08:35	30.4	30.4	30.4	82	25.6	2	4	248	0.00	30.011 
08:40	30.4	30.4	30.4	82	25.6	2	5	248	0.00	30.014 
08:45	30.4	30.4	30.4	82	25.6	2	5	248	0.00	30.013 
08:50	30.4	30.4	30.4	82	25.6	3	9	270	0.00	30.015 
08:55	30.4	30.4	30.4	82	25.6	2	6	248	0.00	30.018 
09:00	30.4	30.4	30.4	82	25.6	1	5	270	0.00	30.022 
09:05	30.4	30.4	30.4	82	25.6	2	7	248	0.00	30.022 
09:10	30.4	30.4	30.4	82	25.6	1	4	248	0.00	30.024 
09:15	30.3	30.3	30.3	82	25.5	2	4	270	0.00	30.026 
09:20	30.3	30.3	30.3	82	25.5	1	4	248	0.00	30.028 
09:25	30.3	30.3	30.3	82	25.5	1	5	248	0.00	30.029 
09:30	30.4	30.4	30.4	82	25.6	2	6	248	0.00	30.030 
09:35	30.4	30.4	30.4	82	25.6	2	5	248	0.00	30.030 
09:40	30.4	30.4	30.4	82	25.6	1	4	248	0.00	30.030 
09:45	30.6	30.6	30.6	82	25.8	2	5	248	0.00	30.031 
09:50	30.6	30.6	30.6	82	25.8	2	5	248	0.00	30.034 
09:55	30.6	30.6	30.6	82	25.8	2	5	270	0.00	30.035 
10:00	30.7	30.7	30.7	82	25.9	2	3	248	0.00	30.040 
10:05	30.7	30.7	30.7	82	25.9	2	6	248	0.00	30.040 
10:10	30.9	30.9	30.9	81	25.8	3	6	248	0.00	30.041 
10:15	30.9	30.9	30.9	81	25.8	2	7	248	0.00	30.041 
10:20	31.0	31.0	31.0	81	25.9	2	7	248	0.00	30.042 
10:25	31.2	31.2	31.2	81	26.1	2	6	248	0.00	30.042 
10:30	31.3	31.3	31.3	81	26.2	1	4	248	0.00	30.043 
10:35	31.5	31.5	31.5	80	26.1	3	9	248	0.00	30.047 
10:40	31.5	31.5	31.5	80	26.1	2	5	248	0.00	30.052 
10:45	31.8	31.8	31.8	80	26.3	1	3	248	0.00	30.055 
10:50	31.9	31.9	31.9	80	26.4	1	4	248	0.00	30.056 
10:55	32.1	32.1	32.1	79	26.3	2	6	248	0.00	30.056 
11:00	32.1	32.1	32.1	79	26.3	2	5	248	0.00	30.057 
11:05	32.1	32.1	32.1	78	26.0	3	7	248	0.00	30.056 
11:10	32.1	32.1	32.1	79	26.3	2	4	248	0.00	30.055 
11:15	32.2	32.2	32.2	79	26.4	2	6	248	0.00	30.056 
11:20	32.2	32.2	32.2	78	26.1	2	7	248	0.00	30.058 
11:25	32.2	32.2	32.2	79	26.4	2	7	248	0.00	30.058 
11:30	32.2	32.2	32.2	78	26.1	2	7	270	0.00	30.057 
11:35	32.4	32.4	32.4	78	26.3	2	6	248	0.00	30.057 
11:40	32.2	32.2	32.2	78	26.1	2	5	270	0.00	30.058 
11:45	32.4	32.4	32.4	79	26.6	2	6	270	0.00	30.056 
11:50	32.4	32.4	32.4	79	26.6	2	7	270	0.00	30.056 
11:55	32.4	32.4	32.4	78	26.3	2	6	248	0.00	30.056 
12:00	32.4	32.4	32.4	78	26.3	2	5	248	0.00	30.056 
12:05	32.4	32.4	32.4	79	26.6	1	3	248	0.00	30.056 
12:10	32.4	32.4	32.4	78	26.3	2	4	248	0.00	30.056 
12:15	32.4	32.4	32.4	79	26.6	1	4	248	0.00	30.057 
12:20	32.4	32.4	32.4	78	26.3	3	6	270	0.00	30.055 
12:25	32.5	32.5	32.5	79	26.7	1	2	248	0.00	30.055 
12:30	32.7	32.7	32.7	78	26.6	1	4	248	0.00	30.055 
12:35	32.8	32.8	32.8	78	26.7	2	5	248	0.00	30.056 
12:40	32.9	32.9	32.9	78	26.8	2	6	248	0.00	30.056 
12:45	32.9	32.9	32.9	78	26.8	2	5	270	0.00	30.057 
12:50	32.9	32.9	32.9	77	26.5	2	4	248	0.00	30.055 
12:55	32.9	32.9	32.9	78	26.8	1	5	248	0.00	30.055 
13:00	33.1	33.1	33.1	77	26.7	1	4	270	0.01	30.055 
13:05	33.1	33.1	33.1	76	26.4	2	3	270	0.00	30.059 
13:10	33.1	33.1	33.1	76	26.4	2	7	292	0.00	30.058 
13:15	33.2	33.2	33.2	75	26.2	2	6	315	0.01	30.056 
13:20	33.5	33.5	33.5	75	26.4	2	5	315	0.00	30.053 
13:25	33.4	33.4	33.4	75	26.3	2	6	270	0.00	30.054 
13:30	33.4	33.4	33.4	74	26.0	3	5	270	0.00	30.056 
13:35	33.5	33.5	33.5	74	26.1	2	4	338	0.00	30.055 
13:40	33.5	33.5	33.5	73	25.8	2	6	315	0.00	30.053 
13:45	33.5	33.5	33.5	73	25.8	1	5	338	0.00	30.053 
13:50	33.5	33.5	33.5	73	25.8	1	3	338	0.01	30.053 
13:55	33.5	33.5	33.5	73	25.8	2	6	270	0.00	30.055 
14:00	33.7	33.7	33.7	73	26.0	1	3	315	0.00	30.056 
14:05	33.8	33.8	33.8	73	26.1	2	4	270	0.00	30.060 
14:10	33.8	33.8	33.8	73	26.1	2	6	270	0.00	30.060 
14:15	34.0	34.0	34.0	73	26.3	1	3	292	0.01	30.057 
14:20	34.1	34.1	34.1	72	26.0	2	7	270	0.00	30.058 
14:25	33.8	33.8	33.8	73	26.1	2	4	270	0.00	30.058 
14:30	33.8	33.8	33.8	73	26.1	1	4	270	0.00	30.060 
14:35	33.7	33.7	33.7	73	26.0	2	4	270	0.00	30.061 
14:40	33.8	33.8	33.8	73	26.1	1	5	315	0.00	30.059 
14:45	33.8	33.8	33.8	73	26.1	1	2	270	0.00	30.062 
14:50	34.0	34.0	34.0	73	26.3	1	3	248	0.01	30.065 
14:55	33.8	33.8	33.8	73	26.1	2	5	270	0.00	30.069 
15:00	33.7	33.7	33.7	73	26.0	1	3	270	0.00	30.070 
15:05	33.7	33.7	33.7	73	26.0	0	2	292	0.00	30.070 
15:10	33.5	33.5	33.5	73	25.8	1	4	292	0.00	30.071 
15:15	33.5	33.5	33.5	73	25.8	2	5	270	0.00	30.074 
15:20	33.5	33.5	33.5	73	25.8	1	5	248	0.01	30.075 
15:25	33.5	33.5	33.5	73	25.8	2	5	270	0.00	30.081 
15:30	33.5	33.5	33.5	73	25.8	1	4	338	0.00	30.084 
15:35	33.4	33.4	33.4	73	25.7	1	4	292	0.00	30.087 
15:40	33.2	33.2	33.2	73	25.5	1	3	338	0.00	30.089 
15:45	33.2	33.2	33.2	74	25.8	1	2	315	0.00	30.089 
15:50	33.1	33.1	33.1	73	25.4	2	5	270	0.00	30.090 
15:55	32.7	32.7	32.7	73	25.0	1	4	248	0.00	30.092 
16:00	32.5	32.5	32.5	74	25.2	1	4	315	0.00	30.094 
16:05	32.4	32.4	32.4	74	25.1	1	2	292	0.00	30.098 
16:10	32.4	32.4	32.4	75	25.4	1	2	338	0.00	30.103 
16:15	32.4	32.4	32.4	75	25.4	0	3	248	0.00	30.105 
16:20	32.4	32.4	32.4	75	25.4	0	2	315	0.00	30.106 
16:25	32.4	32.4	32.4	75	25.4	1	4	315	0.00	30.109 
16:30	32.4	32.4	32.4	75	25.4	0	2	248	0.00	30.109 
16:35	32.2	32.2	32.2	76	25.5	0	3	248	0.00	30.111 
16:40	32.2	32.2	32.2	76	25.5	0	2	248	0.00	30.117 
16:45	32.1	32.1	32.1	76	25.4	1	5	248	0.01	30.117 
16:50	31.9	31.9	31.9	77	25.5	1	3	270	0.00	30.115 
16:55	31.8	31.8	31.8	77	25.4	1	3	270	0.00	30.113 
17:00	31.5	31.5	31.5	78	25.4	0	1	270	0.00	30.112 
17:05	31.3	31.3	31.3	78	25.3	0	2	270	0.00	30.115 
17:10	31.0	31.0	31.0	79	25.3	1	2	292	0.00	30.118 
17:15	30.9	30.9	30.9	79	25.2	0	3	292	0.00	30.122 
17:20	30.7	30.7	30.7	80	25.3	0	1	292	0.00	30.123 
17:25	30.6	30.6	30.6	80	25.2	0	2	270	0.00	30.124 
17:30	30.4	30.4	30.4	80	25.0	0	2	270	0.00	30.126 
17:35	30.3	30.3	30.3	80	24.9	0	1	270	0.00	30.126 
17:40	30.1	30.1	30.1	81	25.0	0	1	270	0.00	30.133 
17:45	30.1	30.1	30.1	81	25.0	0	3	248	0.00	30.139 
17:50	30.1	30.1	30.1	81	25.0	1	2	248	0.00	30.142 
17:55	30.1	30.1	30.1	81	25.0	1	3	248	0.00	30.146 
18:00	30.1	30.1	30.1	81	25.0	0	2	248	0.00	30.150 
18:05	30.1	30.1	30.1	81	25.0	0	1	248	0.00	30.149 
18:10	30.1	30.1	30.1	81	25.0	0	3	248	0.00	30.152 
18:15	30.1	30.1	30.1	81	25.0	0	1	248	0.00	30.154 
18:20	30.1	30.1	30.1	81	25.0	0	1	248	0.00	30.156 
18:25	30.0	30.0	30.0	81	24.9	0	0	---	0.00	30.156 
18:30	30.0	30.0	30.0	81	24.9	0	1	248	0.00	30.156 
18:35	30.0	30.0	30.0	81	24.9	0	1	248	0.00	30.157 
18:40	30.0	30.0	30.0	81	24.9	0	1	248	0.00	30.161 
18:45	30.0	30.0	30.0	81	24.9	0	1	248	0.00	30.166 
18:50	30.0	30.0	30.0	81	24.9	0	1	248	0.00	30.172 
18:55	30.0	30.0	30.0	81	24.9	0	1	248	0.00	30.172 
19:00	30.0	30.0	30.0	81	24.9	0	1	248	0.00	30.173 
19:05	30.0	30.0	30.0	81	24.9	0	1	248	0.00	30.175 
19:10	30.0	30.0	30.0	81	24.9	0	1	248	0.00	30.176 
19:15	29.8	29.8	29.8	80	24.4	0	3	248	0.00	30.179 
19:20	29.8	29.8	29.8	80	24.4	1	4	248	0.00	30.183 
19:25	29.8	29.8	29.8	80	24.4	0	4	248	0.00	30.185 
19:30	29.8	29.8	29.8	80	24.4	0	2	248	0.00	30.188 
19:35	29.7	29.7	29.7	81	24.6	0	2	248	0.00	30.188 
19:40	29.7	29.7	29.7	81	24.6	0	1	248	0.00	30.189 
19:45	29.5	29.5	29.5	81	24.4	0	1	248	0.00	30.189 
19:50	29.5	29.5	29.5	81	24.4	0	1	248	0.00	30.190 
19:55	29.4	29.4	29.4	81	24.3	0	1	248	0.00	30.190 
20:00	29.4	29.4	29.4	81	24.3	0	0	---	0.00	30.189 
20:05	29.4	29.4	29.4	81	24.3	0	1	248	0.00	30.191 
20:10	29.4	29.4	29.4	81	24.3	0	2	248	0.00	30.196 
20:15	29.4	29.4	29.4	81	24.3	0	1	248	0.00	30.201 
20:20	29.3	29.3	29.3	81	24.2	0	1	248	0.00	30.199 
20:25	29.3	29.3	29.3	81	24.2	0	1	248	0.00	30.198 
20:30	29.3	29.3	29.3	81	24.2	0	0	---	0.00	30.194 
20:35	29.1	29.1	29.1	81	24.0	0	0	---	0.00	30.193 
20:40	29.1	29.1	29.1	81	24.0	0	0	---	0.00	30.192 
20:45	29.0	29.0	29.0	82	24.2	0	0	---	0.00	30.188 
20:50	29.0	29.0	29.0	82	24.2	0	0	---	0.00	30.187 
20:55	29.0	29.0	29.0	82	24.2	0	0	---	0.00	30.186 
21:00	28.8	28.8	28.8	82	24.0	0	0	---	0.00	30.183 
21:05	28.7	28.7	28.7	82	23.9	0	0	---	0.00	30.179 
21:10	28.7	28.7	28.7	82	23.9	0	0	---	0.00	30.181 
21:15	28.5	28.5	28.5	82	23.7	0	0	---	0.00	30.182 
21:20	28.5	28.5	28.5	82	23.7	0	0	---	0.00	30.178 
21:25	28.4	28.4	28.4	83	23.9	0	0	---	0.00	30.180 
21:30	28.4	28.4	28.4	83	23.9	0	0	---	0.00	30.180 
21:35	28.2	28.2	28.2	84	24.0	0	0	---	0.00	30.181 
21:40	28.1	28.1	28.1	84	23.9	0	0	---	0.00	30.179 
21:45	27.9	27.9	27.9	84	23.7	0	1	248	0.00	30.177 
21:50	27.6	27.6	27.6	84	23.4	0	0	---	0.00	30.178 
21:55	27.3	27.3	27.3	84	23.1	0	1	248	0.00	30.178 
22:00	27.2	27.2	27.2	84	23.0	0	0	---	0.00	30.177 
22:05	26.9	26.9	26.9	85	23.0	0	1	248	0.00	30.177 
22:10	26.6	26.6	26.6	85	22.7	0	0	---	0.00	30.177 
22:15	26.4	26.4	26.4	85	22.5	0	0	---	0.00	30.178 
22:20	26.1	26.1	26.1	86	22.5	0	0	---	0.00	30.178 
22:25	26.1	26.1	26.1	86	22.5	0	0	---	0.00	30.179 
22:30	26.1	26.1	26.1	87	22.8	0	1	248	0.00	30.181 
22:35	26.3	26.3	26.3	87	23.0	0	0	---	0.00	30.180 
22:40	26.3	26.3	26.3	87	23.0	0	0	---	0.00	30.181 
22:45	26.1	26.1	26.1	88	23.0	0	0	---	0.00	30.179 
22:50	26.1	26.1	26.1	88	23.0	0	0	---	0.00	30.181 
22:55	26.0	26.0	26.0	88	22.9	0	0	---	0.00	30.186 
23:00	25.8	25.8	25.8	88	22.7	0	0	---	0.00	30.190 
23:05	25.8	25.8	25.8	88	22.7	0	0	---	0.00	30.190 
23:10	25.7	25.7	25.7	88	22.6	0	0	---	0.00	30.191 
23:15	25.7	25.7	25.7	88	22.6	0	0	---	0.00	30.191 
23:20	25.7	25.7	25.7	89	22.9	0	1	248	0.00	30.193 
23:25	25.6	25.6	25.6	89	22.8	0	1	248	0.00	30.196 
23:30	25.6	25.6	25.6	89	22.8	0	1	248	0.00	30.196 
23:35	25.7	25.7	25.7	89	22.9	0	2	248	0.00	30.198 
23:40	25.8	25.8	25.8	89	23.0	0	1	248	0.00	30.195 
23:45	25.7	25.7	25.7	89	22.9	0	0	---	0.00	30.195 
23:50	25.7	25.7	25.7	89	22.9	0	1	248	0.00	30.197 
23:55	25.6	25.6	25.6	89	22.8	0	0	---	0.00	30.200 

CoCoRaHS
IN-AL-39
A2 Web Hosting
Creative Commons License
GoDaddy
Look for:

loaded 2017-12-12 14:54:34 • last modified 2010-11-18 10:43:29
Privacy PolicyDisclaimer
• wx.awcolley.com is powered by PmWiki v.2002016 •
• all content (unless otherwise noted) © 2017 A W Colley